Hauptseite
METAR-TAF:

METAR-TAF

Flughäfen :

Midway, Vereinigte Staaten

Breite: 28-13N, Länge: 177-22W, Höhe: 4 m

Beobachtung

Neuester Wetterbericht von vor 11 Minuten, um 20:56 UTC
Wind 13 kt aus Ost/Nordost
Temperatur 19°C
Luftfeuchtigkeit 64%
Luftdruck 1025 hPa
Sichtweite: 16.1 km
Geschlossene Wolkendecke in der Höhe von 3400 ft

METAR: PMDY 152056Z AUTO 06013KT 10SM OVC034 19/12 A3028 RMK AO2 SLP255 T01890117 51006

Zeit: 11:07 (21:07 UTC)

Prognose

Neuester Wetterbericht von vor 3 Stunden und 32 Minuten, um 17:35 UTC
Gültige Prognose vom 15 um 18 UTC bis 16 um 18 UTC
Wind 12 kt aus Nordost, Böen bis zu 18 kt
Sichtweite: 10 km
Durchbrochene Bewölkung in der Höhe von 3500 ft
Ab 15 um 2100 UTC
Wind 12 kt aus Ost
Sichtweite: 10 km
Aufgelockert bewölkt in der Höhe von 3500 ft
Aufgelockert bewölkt in der Höhe von 5000 ft

TAF: PMDY 151735Z 1518/1618 05012G18KT P6SM BKN035 FM152100 08012KT P6SM SCT035 SCT050

Wetterbeobachtungen und Prognosen von mehr als 4000 Flughäfen (METAR und TAF Bericht).

Die verfügbaren Stationen werden durch gelbe und rote Markierungen auf der Karte dargestellt.

Führen Sie die Maus auf sie, um den Namen der Station zu sehen.

Darauf klicken, um die Beobachtung von Wetterbeobachtungen und Prognosen zu sehen.

Um die Karte zu ändern : klicken Sie auf den grünen Tasten mit einem schwarzen Kreuz Zum Vergrößern, auf den grünen Button mit einem Gedankenstrich zu verkleinern, oder auf die grünen Pfeile für benachbarte Karten.


METAR-TAF: